sensor_id;sensor_type;location;lat;lon;timestamp;pressure;altitude;pressure_sealevel;temperature;humidity
13553;BME280;6847;48.830;9.116;2023-07-02T00:01:38;97356.97;;;19.87;66.85
13553;BME280;6847;48.830;9.116;2023-07-02T00:04:06;97316.56;;;19.59;66.67
13553;BME280;6847;48.830;9.116;2023-07-02T00:06:34;97357.22;;;19.82;66.16
13553;BME280;6847;48.830;9.116;2023-07-02T00:09:05;97331.91;;;19.61;65.80
13553;BME280;6847;48.830;9.116;2023-07-02T00:11:32;97358.84;;;19.71;65.63
13553;BME280;6847;48.830;9.116;2023-07-02T00:13:58;97359.56;;;19.68;65.60
13553;BME280;6847;48.830;9.116;2023-07-02T00:16:25;97315.50;;;19.36;65.46
13553;BME280;6847;48.830;9.116;2023-07-02T00:18:53;97356.94;;;19.59;65.38
13553;BME280;6847;48.830;9.116;2023-07-02T00:21:20;97182.66;;;18.45;65.30
13553;BME280;6847;48.830;9.116;2023-07-02T00:23:46;97292.44;;;19.13;64.96
13553;BME280;6847;48.830;9.116;2023-07-02T00:26:15;97333.56;;;19.37;64.71
13553;BME280;6847;48.830;9.116;2023-07-02T00:28:42;97356.28;;;19.50;64.97
13553;BME280;6847;48.830;9.116;2023-07-02T00:31:08;97347.16;;;19.34;64.89
13553;BME280;6847;48.830;9.116;2023-07-02T00:33:35;97364.66;;;19.53;64.54
13553;BME280;6847;48.830;9.116;2023-07-02T00:36:03;97360.94;;;19.62;64.31
13553;BME280;6847;48.830;9.116;2023-07-02T00:38:30;97368.97;;;19.67;64.17
13553;BME280;6847;48.830;9.116;2023-07-02T00:40:57;97372.59;;;19.71;64.16
13553;BME280;6847;48.830;9.116;2023-07-02T00:43:23;97370.06;;;19.78;63.81
13553;BME280;6847;48.830;9.116;2023-07-02T00:45:50;97358.34;;;19.81;63.77
13553;BME280;6847;48.830;9.116;2023-07-02T00:48:17;97367.25;;;19.90;63.52
13553;BME280;6847;48.830;9.116;2023-07-02T00:50:43;97312.75;;;19.48;63.71
13553;BME280;6847;48.830;9.116;2023-07-02T00:53:11;97369.31;;;19.93;63.49
13553;BME280;6847;48.830;9.116;2023-07-02T00:55:38;97364.25;;;19.95;63.41
13553;BME280;6847;48.830;9.116;2023-07-02T00:58:04;97366.75;;;20.00;63.47
13553;BME280;6847;48.830;9.116;2023-07-02T01:00:33;97367.66;;;20.04;63.43
13553;BME280;6847;48.830;9.116;2023-07-02T01:03:00;97234.59;;;19.18;63.49
13553;BME280;6847;48.830;9.116;2023-07-02T01:05:28;97368.53;;;20.08;63.07
13553;BME280;6847;48.830;9.116;2023-07-02T01:08:01;97363.75;;;20.05;62.93
13553;BME280;6847;48.830;9.116;2023-07-02T01:10:30;97190.13;;;18.84;63.12
13553;BME280;6847;48.830;9.116;2023-07-02T01:13:01;97370.03;;;20.06;63.02
13553;BME280;6847;48.830;9.116;2023-07-02T01:15:28;97352.53;;;19.98;62.89
13553;BME280;6847;48.830;9.116;2023-07-02T01:17:54;97377.31;;;20.14;63.05
13553;BME280;6847;48.830;9.116;2023-07-02T01:20:24;97368.72;;;20.15;63.10
13553;BME280;6847;48.830;9.116;2023-07-02T01:22:52;97283.88;;;19.54;63.02
13553;BME280;6847;48.830;9.116;2023-07-02T01:25:19;97376.78;;;20.08;62.92
13553;BME280;6847;48.830;9.116;2023-07-02T01:27:50;97379.78;;;20.03;63.09
13553;BME280;6847;48.830;9.116;2023-07-02T01:30:16;97378.34;;;19.93;62.96
13553;BME280;6847;48.830;9.116;2023-07-02T01:32:43;97378.94;;;19.87;62.98
13553;BME280;6847;48.830;9.116;2023-07-02T01:35:09;97358.84;;;19.71;63.15
13553;BME280;6847;48.830;9.116;2023-07-02T01:37:37;97373.25;;;19.80;62.77
13553;BME280;6847;48.830;9.116;2023-07-02T01:40:05;97367.66;;;19.76;62.98
13553;BME280;6847;48.830;9.116;2023-07-02T01:42:32;97374.19;;;19.72;63.10
13553;BME280;6847;48.830;9.116;2023-07-02T01:44:59;97282.16;;;19.10;62.99
13553;BME280;6847;48.830;9.116;2023-07-02T01:47:26;97294.50;;;19.16;62.93
13553;BME280;6847;48.830;9.116;2023-07-02T01:49:52;97368.16;;;19.66;62.76
13553;BME280;6847;48.830;9.116;2023-07-02T01:52:20;97359.13;;;19.66;62.67
13553;BME280;6847;48.830;9.116;2023-07-02T01:54:48;97288.75;;;19.21;62.66
13553;BME280;6847;48.830;9.116;2023-07-02T01:57:15;97286.75;;;19.18;62.71
13553;BME280;6847;48.830;9.116;2023-07-02T01:59:41;97371.06;;;19.57;62.64
13553;BME280;6847;48.830;9.116;2023-07-02T02:02:08;97036.78;;;17.47;62.55
13553;BME280;6847;48.830;9.116;2023-07-02T02:04:34;97366.44;;;19.62;62.51
13553;BME280;6847;48.830;9.116;2023-07-02T02:07:01;97368.72;;;19.59;62.43
13553;BME280;6847;48.830;9.116;2023-07-02T02:09:28;97320.06;;;19.32;62.60
13553;BME280;6847;48.830;9.116;2023-07-02T02:11:59;97367.72;;;19.64;62.43
13553;BME280;6847;48.830;9.116;2023-07-02T02:14:25;97378.00;;;19.67;62.14
13553;BME280;6847;48.830;9.116;2023-07-02T02:16:51;97347.38;;;19.53;62.41
13553;BME280;6847;48.830;9.116;2023-07-02T02:19:18;97358.66;;;19.64;62.04
13553;BME280;6847;48.830;9.116;2023-07-02T02:21:45;97330.00;;;19.49;62.04
13553;BME280;6847;48.830;9.116;2023-07-02T02:24:11;97380.56;;;19.88;62.13
13553;BME280;6847;48.830;9.116;2023-07-02T02:26:38;97345.47;;;19.69;61.84
13553;BME280;6847;48.830;9.116;2023-07-02T02:29:06;97359.28;;;19.85;61.81
13553;BME280;6847;48.830;9.116;2023-07-02T02:31:34;97349.88;;;19.86;61.90
13553;BME280;6847;48.830;9.116;2023-07-02T02:34:00;97377.22;;;20.10;61.70
13553;BME280;6847;48.830;9.116;2023-07-02T02:36:27;97305.44;;;19.68;61.69
13553;BME280;6847;48.830;9.116;2023-07-02T02:38:53;97352.47;;;19.94;61.83
13553;BME280;6847;48.830;9.116;2023-07-02T02:41:20;97384.50;;;20.18;61.60
13553;BME280;6847;48.830;9.116;2023-07-02T02:43:46;97367.31;;;20.21;61.79
13553;BME280;6847;48.830;9.116;2023-07-02T02:46:19;97377.63;;;20.24;61.68
13553;BME280;6847;48.830;9.116;2023-07-02T02:48:46;97373.72;;;20.25;61.62
13553;BME280;6847;48.830;9.116;2023-07-02T02:51:12;97274.69;;;19.63;61.57
13553;BME280;6847;48.830;9.116;2023-07-02T02:53:39;97385.84;;;20.24;61.49
13553;BME280;6847;48.830;9.116;2023-07-02T02:56:06;97388.59;;;20.24;61.59
13553;BME280;6847;48.830;9.116;2023-07-02T02:58:32;97391.34;;;20.24;61.79
13553;BME280;6847;48.830;9.116;2023-07-02T03:00:59;97402.59;;;20.19;61.62
13553;BME280;6847;48.830;9.116;2023-07-02T03:03:28;97281.06;;;19.39;61.80
13553;BME280;6847;48.830;9.116;2023-07-02T03:05:55;97406.41;;;20.15;61.93
13553;BME280;6847;48.830;9.116;2023-07-02T03:08:22;97380.03;;;19.98;61.73
13553;BME280;6847;48.830;9.116;2023-07-02T03:10:49;97419.53;;;20.21;61.78
13553;BME280;6847;48.830;9.116;2023-07-02T03:13:16;97373.88;;;19.89;61.84
13553;BME280;6847;48.830;9.116;2023-07-02T03:15:42;97416.41;;;20.07;61.98
13553;BME280;6847;48.830;9.116;2023-07-02T03:18:10;97327.16;;;19.33;62.06
13553;BME280;6847;48.830;9.116;2023-07-02T03:20:41;97427.00;;;19.93;61.88
13553;BME280;6847;48.830;9.116;2023-07-02T03:23:07;97439.75;;;19.85;61.90
13553;BME280;6847;48.830;9.116;2023-07-02T03:25:34;97406.50;;;19.63;62.18
13553;BME280;6847;48.830;9.116;2023-07-02T03:28:02;97440.78;;;19.81;62.08
13553;BME280;6847;48.830;9.116;2023-07-02T03:30:29;97441.47;;;19.78;62.19
13553;BME280;6847;48.830;9.116;2023-07-02T03:32:57;97444.66;;;19.80;62.21
13553;BME280;6847;48.830;9.116;2023-07-02T03:35:24;97446.97;;;19.78;62.29
13553;BME280;6847;48.830;9.116;2023-07-02T03:37:52;97440.56;;;19.74;61.93
13553;BME280;6847;48.830;9.116;2023-07-02T03:40:18;97395.31;;;19.31;62.16
13553;BME280;6847;48.830;9.116;2023-07-02T03:42:45;97448.34;;;19.72;62.27
13553;BME280;6847;48.830;9.116;2023-07-02T03:45:12;97421.84;;;19.51;62.15
13553;BME280;6847;48.830;9.116;2023-07-02T03:47:38;97452.25;;;19.71;62.00
13553;BME280;6847;48.830;9.116;2023-07-02T03:50:05;97426.66;;;19.54;61.97
13553;BME280;6847;48.830;9.116;2023-07-02T03:52:32;97465.50;;;19.69;62.07
13553;BME280;6847;48.830;9.116;2023-07-02T03:55:00;97462.34;;;19.67;61.98
13553;BME280;6847;48.830;9.116;2023-07-02T03:57:27;97468.72;;;19.71;62.02
13553;BME280;6847;48.830;9.116;2023-07-02T03:59:54;97467.81;;;19.67;61.85
13553;BME280;6847;48.830;9.116;2023-07-02T04:02:21;97478.09;;;19.70;61.92
13553;BME280;6847;48.830;9.116;2023-07-02T04:04:50;97477.22;;;19.66;62.12
13553;BME280;6847;48.830;9.116;2023-07-02T04:07:18;97474.34;;;19.62;62.05
13553;BME280;6847;48.830;9.116;2023-07-02T04:09:46;97459.38;;;19.47;61.93
13553;BME280;6847;48.830;9.116;2023-07-02T04:12:19;97482.50;;;19.58;61.92
13553;BME280;6847;48.830;9.116;2023-07-02T04:15:08;97488.75;;;19.59;61.91
13553;BME280;6847;48.830;9.116;2023-07-02T04:17:48;97340.94;;;18.48;61.76
13553;BME280;6847;48.830;9.116;2023-07-02T04:20:16;97477.91;;;19.50;61.93
13553;BME280;6847;48.830;9.116;2023-07-02T04:22:45;97477.47;;;19.48;62.06
13553;BME280;6847;48.830;9.116;2023-07-02T04:25:28;97485.72;;;19.48;62.19
13553;BME280;6847;48.830;9.116;2023-07-02T04:27:58;97489.09;;;19.45;62.01
13553;BME280;6847;48.830;9.116;2023-07-02T04:30:28;97342.66;;;18.53;61.92
13553;BME280;6847;48.830;9.116;2023-07-02T04:32:55;97483.50;;;19.42;61.73
13553;BME280;6847;48.830;9.116;2023-07-02T04:35:24;97487.84;;;19.43;61.82
13553;BME280;6847;48.830;9.116;2023-07-02T04:37:54;97455.28;;;19.29;61.59
13553;BME280;6847;48.830;9.116;2023-07-02T04:40:23;97119.72;;;17.02;61.74
13553;BME280;6847;48.830;9.116;2023-07-02T04:43:09;97484.28;;;19.42;61.71
13553;BME280;6847;48.830;9.116;2023-07-02T04:45:37;97493.22;;;19.39;61.67
13553;BME280;6847;48.830;9.116;2023-07-02T04:48:05;97473.56;;;19.25;61.63
13553;BME280;6847;48.830;9.116;2023-07-02T04:50:33;97501.44;;;19.39;61.63
13553;BME280;6847;48.830;9.116;2023-07-02T04:53:03;97486.94;;;19.39;61.82
13553;BME280;6847;48.830;9.116;2023-07-02T04:55:33;97499.44;;;19.48;61.75
13553;BME280;6847;48.830;9.116;2023-07-02T04:58:03;97369.31;;;18.76;61.61
13553;BME280;6847;48.830;9.116;2023-07-02T05:00:38;97508.09;;;19.75;61.58
13553;BME280;6847;48.830;9.116;2023-07-02T05:03:05;97465.75;;;19.64;61.23
13553;BME280;6847;48.830;9.116;2023-07-02T05:05:31;97504.72;;;19.93;61.46
13553;BME280;6847;48.830;9.116;2023-07-02T05:07:58;97497.75;;;19.96;60.92
13553;BME280;6847;48.830;9.116;2023-07-02T05:10:25;97477.13;;;19.90;61.06
13553;BME280;6847;48.830;9.116;2023-07-02T05:12:53;97452.50;;;19.66;61.17
13553;BME280;6847;48.830;9.116;2023-07-02T05:15:26;97522.22;;;20.01;61.26
13553;BME280;6847;48.830;9.116;2023-07-02T05:17:54;97269.22;;;18.34;61.03
13553;BME280;6847;48.830;9.116;2023-07-02T05:20:21;97527.50;;;19.94;61.26
13553;BME280;6847;48.830;9.116;2023-07-02T05:22:49;97472.66;;;19.57;61.08
13553;BME280;6847;48.830;9.116;2023-07-02T05:25:15;97521.56;;;19.80;61.37
13553;BME280;6847;48.830;9.116;2023-07-02T05:27:44;97526.19;;;19.76;61.37
13553;BME280;6847;48.830;9.116;2023-07-02T05:30:11;97533.69;;;19.79;61.45
13553;BME280;6847;48.830;9.116;2023-07-02T05:32:38;97535.78;;;19.82;61.40
13553;BME280;6847;48.830;9.116;2023-07-02T05:35:08;97540.78;;;19.92;61.07
13553;BME280;6847;48.830;9.116;2023-07-02T05:37:37;97526.59;;;19.90;60.83
13553;BME280;6847;48.830;9.116;2023-07-02T05:40:05;97461.53;;;19.66;60.82
13553;BME280;6847;48.830;9.116;2023-07-02T05:42:32;97546.56;;;20.27;60.61
13553;BME280;6847;48.830;9.116;2023-07-02T05:44:59;97538.63;;;20.38;60.58
13553;BME280;6847;48.830;9.116;2023-07-02T05:47:25;97530.13;;;20.43;60.77
13553;BME280;6847;48.830;9.116;2023-07-02T05:49:55;97432.50;;;19.93;60.35
13553;BME280;6847;48.830;9.116;2023-07-02T05:52:23;97526.84;;;20.65;60.23
13553;BME280;6847;48.830;9.116;2023-07-02T05:54:51;97513.59;;;20.55;60.18
13553;BME280;6847;48.830;9.116;2023-07-02T05:57:19;97546.63;;;20.86;60.15
13553;BME280;6847;48.830;9.116;2023-07-02T05:59:46;97376.28;;;19.90;59.72
13553;BME280;6847;48.830;9.116;2023-07-02T06:02:13;97558.94;;;21.04;59.75
13553;BME280;6847;48.830;9.116;2023-07-02T06:04:40;97553.44;;;21.04;59.75
13553;BME280;6847;48.830;9.116;2023-07-02T06:07:10;97484.31;;;20.62;59.73
13553;BME280;6847;48.830;9.116;2023-07-02T06:09:39;97552.66;;;21.20;59.63
13553;BME280;6847;48.830;9.116;2023-07-02T06:12:08;97558.63;;;21.22;59.33
13553;BME280;6847;48.830;9.116;2023-07-02T06:14:36;97556.03;;;21.29;59.38
13553;BME280;6847;48.830;9.116;2023-07-02T06:17:03;97562.88;;;21.35;59.48
13553;BME280;6847;48.830;9.116;2023-07-02T06:19:33;97556.22;;;21.36;59.41
13553;BME280;6847;48.830;9.116;2023-07-02T06:22:03;97562.34;;;21.45;59.16
13553;BME280;6847;48.830;9.116;2023-07-02T06:24:31;97377.13;;;20.35;59.15
13553;BME280;6847;48.830;9.116;2023-07-02T06:26:59;97541.91;;;21.46;58.96
13553;BME280;6847;48.830;9.116;2023-07-02T06:29:26;97560.38;;;21.61;58.79
13553;BME280;6847;48.830;9.116;2023-07-02T06:31:54;97533.81;;;21.37;58.90
13553;BME280;6847;48.830;9.116;2023-07-02T06:34:21;97565.97;;;21.65;58.72
13553;BME280;6847;48.830;9.116;2023-07-02T06:36:47;97579.56;;;21.73;58.64
13553;BME280;6847;48.830;9.116;2023-07-02T06:39:16;97577.34;;;21.79;58.35
13553;BME280;6847;48.830;9.116;2023-07-02T06:41:43;97569.31;;;21.90;58.36
13553;BME280;6847;48.830;9.116;2023-07-02T06:44:14;97577.22;;;22.07;57.93
13553;BME280;6847;48.830;9.116;2023-07-02T06:46:41;97581.47;;;22.20;58.01
13553;BME280;6847;48.830;9.116;2023-07-02T06:49:08;97571.28;;;22.43;57.58
13553;BME280;6847;48.830;9.116;2023-07-02T06:51:57;97574.94;;;22.67;57.35
13553;BME280;6847;48.830;9.116;2023-07-02T06:54:25;97536.75;;;22.49;57.02
13553;BME280;6847;48.830;9.116;2023-07-02T06:56:51;97575.63;;;22.79;57.10
13553;BME280;6847;48.830;9.116;2023-07-02T06:59:20;97581.63;;;22.85;57.19
13553;BME280;6847;48.830;9.116;2023-07-02T07:01:51;97576.13;;;22.85;57.20
13553;BME280;6847;48.830;9.116;2023-07-02T07:04:19;97544.00;;;22.58;57.12
13553;BME280;6847;48.830;9.116;2023-07-02T07:06:46;97569.44;;;22.86;57.06
13553;BME280;6847;48.830;9.116;2023-07-02T07:09:13;97555.16;;;22.80;57.01
13553;BME280;6847;48.830;9.116;2023-07-02T07:11:39;97578.00;;;23.00;56.78
13553;BME280;6847;48.830;9.116;2023-07-02T07:14:07;97567.25;;;22.95;56.68
13553;BME280;6847;48.830;9.116;2023-07-02T07:16:37;97584.50;;;23.11;56.66
13553;BME280;6847;48.830;9.116;2023-07-02T07:19:04;97580.41;;;23.24;56.28
13553;BME280;6847;48.830;9.116;2023-07-02T07:21:31;97585.19;;;23.28;56.14
13553;BME280;6847;48.830;9.116;2023-07-02T07:23:58;97583.84;;;23.18;56.00
13553;BME280;6847;48.830;9.116;2023-07-02T07:26:27;97587.69;;;23.13;56.18
13553;BME280;6847;48.830;9.116;2023-07-02T07:28:54;97596.13;;;23.20;55.98
13553;BME280;6847;48.830;9.116;2023-07-02T07:31:24;97587.63;;;23.33;55.42
13553;BME280;6847;48.830;9.116;2023-07-02T07:33:52;97593.41;;;23.47;55.36
13553;BME280;6847;48.830;9.116;2023-07-02T07:36:19;97593.41;;;23.47;55.04
13553;BME280;6847;48.830;9.116;2023-07-02T07:38:45;97596.69;;;23.52;54.90
13553;BME280;6847;48.830;9.116;2023-07-02T07:41:12;97600.44;;;23.64;54.65
13553;BME280;6847;48.830;9.116;2023-07-02T07:44:03;97597.66;;;23.86;54.57
13553;BME280;6847;48.830;9.116;2023-07-02T07:46:29;97569.56;;;23.84;54.21
13553;BME280;6847;48.830;9.116;2023-07-02T07:49:03;97598.28;;;24.03;54.10
13553;BME280;6847;48.830;9.116;2023-07-02T07:51:31;97593.19;;;24.05;53.81
13553;BME280;6847;48.830;9.116;2023-07-02T07:54:01;97585.75;;;24.09;53.50
13553;BME280;6847;48.830;9.116;2023-07-02T07:56:30;97598.72;;;24.31;53.12
13553;BME280;6847;48.830;9.116;2023-07-02T07:58:57;97592.66;;;24.48;52.88
13553;BME280;6847;48.830;9.116;2023-07-02T08:01:28;97529.66;;;24.12;52.61
13553;BME280;6847;48.830;9.116;2023-07-02T08:03:57;97562.53;;;24.43;52.57
13553;BME280;6847;48.830;9.116;2023-07-02T08:06:27;97596.09;;;24.71;52.15
13553;BME280;6847;48.830;9.116;2023-07-02T08:08:54;97585.22;;;24.89;52.03
13553;BME280;6847;48.830;9.116;2023-07-02T08:11:21;97591.81;;;25.11;51.84
13553;BME280;6847;48.830;9.116;2023-07-02T08:13:48;97587.19;;;25.22;51.47
13553;BME280;6847;48.830;9.116;2023-07-02T08:16:14;97586.44;;;25.29;51.67
13553;BME280;6847;48.830;9.116;2023-07-02T08:18:42;97544.66;;;25.04;51.39
13553;BME280;6847;48.830;9.116;2023-07-02T08:21:09;97591.19;;;25.25;51.29
13553;BME280;6847;48.830;9.116;2023-07-02T08:23:37;97591.88;;;25.15;51.03
13553;BME280;6847;48.830;9.116;2023-07-02T08:26:04;97593.69;;;25.00;51.00
13553;BME280;6847;48.830;9.116;2023-07-02T08:28:31;97584.66;;;24.73;50.95
13553;BME280;6847;48.830;9.116;2023-07-02T08:30:58;97553.78;;;24.41;51.11
13553;BME280;6847;48.830;9.116;2023-07-02T08:33:25;97513.44;;;24.37;50.60
13553;BME280;6847;48.830;9.116;2023-07-02T08:35:54;97571.59;;;24.74;50.64
13553;BME280;6847;48.830;9.116;2023-07-02T08:38:21;97567.81;;;24.89;50.40
13553;BME280;6847;48.830;9.116;2023-07-02T08:40:49;97596.53;;;25.48;49.80
13553;BME280;6847;48.830;9.116;2023-07-02T08:43:16;97602.94;;;26.61;47.68
13553;BME280;6847;48.830;9.116;2023-07-02T08:45:43;97613.16;;;27.51;46.51
13553;BME280;6847;48.830;9.116;2023-07-02T08:48:12;97555.53;;;28.19;45.20
13553;BME280;6847;48.830;9.116;2023-07-02T08:50:38;97602.81;;;29.90;43.23
13553;BME280;6847;48.830;9.116;2023-07-02T08:53:05;97605.22;;;29.95;43.12
13553;BME280;6847;48.830;9.116;2023-07-02T08:55:31;97606.25;;;30.49;42.35
13553;BME280;6847;48.830;9.116;2023-07-02T08:58:03;97608.53;;;30.24;43.45
13553;BME280;6847;48.830;9.116;2023-07-02T09:00:32;97544.19;;;30.34;42.54
13553;BME280;6847;48.830;9.116;2023-07-02T09:03:12;97573.38;;;32.25;40.47
13553;BME280;6847;48.830;9.116;2023-07-02T09:05:48;97616.75;;;33.75;38.46
13553;BME280;6847;48.830;9.116;2023-07-02T09:08:22;97614.88;;;34.78;37.84
13553;BME280;6847;48.830;9.116;2023-07-02T09:10:49;97469.66;;;33.85;37.83
13553;BME280;6847;48.830;9.116;2023-07-02T09:13:18;97600.75;;;34.04;38.99
13553;BME280;6847;48.830;9.116;2023-07-02T09:15:44;97624.59;;;33.64;39.71
13553;BME280;6847;48.830;9.116;2023-07-02T09:18:18;97604.63;;;33.94;38.92
13553;BME280;6847;48.830;9.116;2023-07-02T09:20:50;97626.38;;;34.97;37.23
13553;BME280;6847;48.830;9.116;2023-07-02T09:23:17;97620.22;;;35.69;36.80
13553;BME280;6847;48.830;9.116;2023-07-02T09:25:44;97587.66;;;35.80;36.14
13553;BME280;6847;48.830;9.116;2023-07-02T09:28:14;97620.03;;;36.36;35.59
13553;BME280;6847;48.830;9.116;2023-07-02T09:30:54;97570.16;;;35.98;35.69
13553;BME280;6847;48.830;9.116;2023-07-02T09:33:23;97571.03;;;34.94;36.48
13553;BME280;6847;48.830;9.116;2023-07-02T09:35:49;97620.28;;;34.57;37.36
13553;BME280;6847;48.830;9.116;2023-07-02T09:38:17;97613.97;;;33.19;38.78
13553;BME280;6847;48.830;9.116;2023-07-02T09:40:46;97565.78;;;33.24;37.84
13553;BME280;6847;48.830;9.116;2023-07-02T09:43:13;97617.22;;;33.54;36.98
13553;BME280;6847;48.830;9.116;2023-07-02T09:45:43;97625.69;;;33.14;37.58
13553;BME280;6847;48.830;9.116;2023-07-02T09:48:15;97626.00;;;33.72;36.56
13553;BME280;6847;48.830;9.116;2023-07-02T09:50:45;97572.22;;;33.90;35.82
13553;BME280;6847;48.830;9.116;2023-07-02T09:53:13;97587.50;;;34.50;34.59
13553;BME280;6847;48.830;9.116;2023-07-02T09:55:42;97609.81;;;35.15;33.99
13553;BME280;6847;48.830;9.116;2023-07-02T09:58:10;97614.34;;;35.25;33.85
13553;BME280;6847;48.830;9.116;2023-07-02T10:00:38;97605.44;;;34.56;34.51
13553;BME280;6847;48.830;9.116;2023-07-02T10:03:10;97408.47;;;32.99;34.80
13553;BME280;6847;48.830;9.116;2023-07-02T10:05:38;97597.47;;;34.67;34.50
13553;BME280;6847;48.830;9.116;2023-07-02T10:08:20;97606.06;;;35.05;33.55
13553;BME280;6847;48.830;9.116;2023-07-02T10:10:53;97580.75;;;34.02;34.52
13553;BME280;6847;48.830;9.116;2023-07-02T10:13:26;97577.19;;;33.14;35.10
13553;BME280;6847;48.830;9.116;2023-07-02T10:16:00;97602.53;;;33.30;35.40
13553;BME280;6847;48.830;9.116;2023-07-02T10:18:27;97601.38;;;33.96;34.09
13553;BME280;6847;48.830;9.116;2023-07-02T10:20:56;97540.13;;;34.20;33.05
13553;BME280;6847;48.830;9.116;2023-07-02T10:23:34;97570.34;;;34.89;32.18
13553;BME280;6847;48.830;9.116;2023-07-02T10:26:13;97425.91;;;34.42;31.75
13553;BME280;6847;48.830;9.116;2023-07-02T10:28:40;97596.91;;;35.43;31.90
13553;BME280;6847;48.830;9.116;2023-07-02T10:31:17;97588.00;;;35.44;31.82
13553;BME280;6847;48.830;9.116;2023-07-02T10:33:44;97509.59;;;35.17;31.49
13553;BME280;6847;48.830;9.116;2023-07-02T10:36:18;97589.97;;;36.07;30.89
13553;BME280;6847;48.830;9.116;2023-07-02T10:38:49;97499.44;;;35.71;30.45
13553;BME280;6847;48.830;9.116;2023-07-02T10:41:23;97586.19;;;36.70;30.14
13553;BME280;6847;48.830;9.116;2023-07-02T10:43:50;97574.47;;;36.37;30.55
13553;BME280;6847;48.830;9.116;2023-07-02T10:46:21;97576.41;;;36.27;30.70
13553;BME280;6847;48.830;9.116;2023-07-02T10:48:52;97470.66;;;35.41;30.59
13553;BME280;6847;48.830;9.116;2023-07-02T10:51:21;97593.84;;;35.88;30.88
13553;BME280;6847;48.830;9.116;2023-07-02T10:53:59;97591.72;;;35.54;31.22
13553;BME280;6847;48.830;9.116;2023-07-02T10:56:26;97597.63;;;35.18;31.54
13553;BME280;6847;48.830;9.116;2023-07-02T10:58:53;97599.34;;;34.58;32.10
13553;BME280;6847;48.830;9.116;2023-07-02T11:01:25;97585.34;;;34.70;32.05
13553;BME280;6847;48.830;9.116;2023-07-02T11:03:59;97589.56;;;35.33;30.95
13553;BME280;6847;48.830;9.116;2023-07-02T11:06:28;97587.00;;;34.97;30.87
13553;BME280;6847;48.830;9.116;2023-07-02T11:08:57;97585.31;;;34.99;30.52
13553;BME280;6847;48.830;9.116;2023-07-02T11:11:24;97575.19;;;34.89;30.63
13553;BME280;6847;48.830;9.116;2023-07-02T11:13:52;97535.94;;;34.28;30.29
13553;BME280;6847;48.830;9.116;2023-07-02T11:16:24;97488.72;;;32.93;31.71
13553;BME280;6847;48.830;9.116;2023-07-02T11:18:52;97592.81;;;33.34;31.26
13553;BME280;6847;48.830;9.116;2023-07-02T11:21:19;97602.56;;;33.62;30.87
13553;BME280;6847;48.830;9.116;2023-07-02T11:23:47;97601.84;;;33.78;30.22
13553;BME280;6847;48.830;9.116;2023-07-02T11:26:14;97510.75;;;33.11;30.69
13553;BME280;6847;48.830;9.116;2023-07-02T11:28:50;97576.41;;;33.13;30.63
13553;BME280;6847;48.830;9.116;2023-07-02T11:31:27;97530.59;;;32.84;30.65
13553;BME280;6847;48.830;9.116;2023-07-02T11:33:54;97583.72;;;33.79;30.09
13553;BME280;6847;48.830;9.116;2023-07-02T11:36:22;97509.16;;;33.78;30.04
13553;BME280;6847;48.830;9.116;2023-07-02T11:38:51;97579.84;;;33.73;29.88
13553;BME280;6847;48.830;9.116;2023-07-02T11:41:19;97589.69;;;32.93;30.58
13553;BME280;6847;48.830;9.116;2023-07-02T11:43:46;97548.50;;;32.50;30.76
13553;BME280;6847;48.830;9.116;2023-07-02T11:46:13;97535.28;;;32.51;30.31
13553;BME280;6847;48.830;9.116;2023-07-02T11:48:40;97567.81;;;32.45;30.53
13553;BME280;6847;48.830;9.116;2023-07-02T11:51:06;97579.59;;;32.36;30.90
13553;BME280;6847;48.830;9.116;2023-07-02T11:53:32;97582.38;;;32.13;30.90
13553;BME280;6847;48.830;9.116;2023-07-02T11:56:06;97468.94;;;31.58;30.66
13553;BME280;6847;48.830;9.116;2023-07-02T11:58:32;97416.78;;;31.71;30.53
13553;BME280;6847;48.830;9.116;2023-07-02T12:00:59;97564.38;;;32.96;30.40
13553;BME280;6847;48.830;9.116;2023-07-02T12:03:25;97576.16;;;32.88;30.27
13553;BME280;6847;48.830;9.116;2023-07-02T12:05:52;97568.88;;;33.10;30.38
13553;BME280;6847;48.830;9.116;2023-07-02T12:08:19;97474.50;;;32.84;30.17
13553;BME280;6847;48.830;9.116;2023-07-02T12:10:45;97544.16;;;33.21;30.01
13553;BME280;6847;48.830;9.116;2023-07-02T12:13:13;97564.03;;;33.30;29.82
13553;BME280;6847;48.830;9.116;2023-07-02T12:15:40;97547.13;;;33.14;30.20
13553;BME280;6847;48.830;9.116;2023-07-02T12:18:07;97564.63;;;33.02;30.70
13553;BME280;6847;48.830;9.116;2023-07-02T12:20:34;97565.94;;;32.97;30.56
13553;BME280;6847;48.830;9.116;2023-07-02T12:23:01;97523.56;;;32.76;30.45
13553;BME280;6847;48.830;9.116;2023-07-02T12:25:27;97579.56;;;32.79;30.64
13553;BME280;6847;48.830;9.116;2023-07-02T12:27:54;97565.25;;;32.74;30.42
13553;BME280;6847;48.830;9.116;2023-07-02T12:30:22;97569.44;;;32.62;30.30
13553;BME280;6847;48.830;9.116;2023-07-02T12:32:49;97553.44;;;32.62;30.43
13553;BME280;6847;48.830;9.116;2023-07-02T12:35:16;97542.53;;;32.48;30.41
13553;BME280;6847;48.830;9.116;2023-07-02T12:37:45;97554.72;;;32.38;30.51
13553;BME280;6847;48.830;9.116;2023-07-02T12:40:13;97550.06;;;32.51;30.27
13553;BME280;6847;48.830;9.116;2023-07-02T12:42:41;97549.00;;;32.85;29.61
13553;BME280;6847;48.830;9.116;2023-07-02T12:45:10;97529.50;;;32.97;29.36
13553;BME280;6847;48.830;9.116;2023-07-02T12:47:38;97553.09;;;33.36;29.57
13553;BME280;6847;48.830;9.116;2023-07-02T12:50:06;97558.63;;;33.56;29.01
13553;BME280;6847;48.830;9.116;2023-07-02T12:52:33;97539.84;;;33.69;29.23
13553;BME280;6847;48.830;9.116;2023-07-02T12:55:00;97553.34;;;33.90;28.51
13553;BME280;6847;48.830;9.116;2023-07-02T12:57:27;97537.00;;;34.17;28.67
13553;BME280;6847;48.830;9.116;2023-07-02T12:59:56;97566.00;;;34.72;28.04
13553;BME280;6847;48.830;9.116;2023-07-02T13:02:22;97542.34;;;34.99;27.61
13553;BME280;6847;48.830;9.116;2023-07-02T13:04:52;97547.56;;;35.38;27.31
13553;BME280;6847;48.830;9.116;2023-07-02T13:07:19;97464.13;;;34.81;27.37
13553;BME280;6847;48.830;9.116;2023-07-02T13:09:45;97560.97;;;35.34;27.26
13553;BME280;6847;48.830;9.116;2023-07-02T13:12:12;97543.28;;;35.46;26.97
13553;BME280;6847;48.830;9.116;2023-07-02T13:14:38;97554.63;;;35.55;26.93
13553;BME280;6847;48.830;9.116;2023-07-02T13:17:05;97524.00;;;35.57;26.71